createdAt,value
2022-10-20T00:00:22.987Z,88.18
2022-10-20T00:01:27.838Z,88.51
2022-10-20T00:02:31.193Z,87.68
2022-10-20T00:03:34.236Z,87.22
2022-10-20T00:04:38.259Z,87.30
2022-10-20T00:05:40.856Z,86.90
2022-10-20T00:06:45.193Z,86.79
2022-10-20T00:07:48.565Z,87.02
2022-10-20T00:08:55.547Z,87.78
2022-10-20T00:10:13.860Z,87.62
2022-10-20T00:11:18.299Z,88.37
2022-10-20T00:12:23.186Z,87.33
2022-10-20T00:13:26.402Z,87.37
2022-10-20T00:14:31.635Z,87.93
2022-10-20T00:15:35.128Z,88.47
2022-10-20T00:16:40.346Z,88.76
2022-10-20T00:17:45.074Z,87.49
2022-10-20T00:18:48.996Z,88.42
2022-10-20T00:19:52.396Z,89.41
2022-10-20T00:20:55.623Z,89.45
2022-10-20T00:22:01.183Z,89.53
2022-10-20T00:23:03.841Z,89.43
2022-10-20T00:24:07.218Z,88.14
2022-10-20T00:25:10.758Z,89.05
2022-10-20T00:26:17.918Z,88.60
2022-10-20T00:27:21.631Z,88.81
2022-10-20T00:28:24.302Z,89.49
2022-10-20T00:29:27.716Z,89.80
2022-10-20T00:30:30.162Z,90.18
2022-10-20T00:31:33.759Z,90.12
2022-10-20T00:32:37.488Z,90.11
2022-10-20T00:33:41.408Z,90.02
2022-10-20T00:34:44.566Z,89.97
2022-10-20T00:35:47.888Z,90.54
2022-10-20T00:36:51.658Z,89.56
2022-10-20T00:37:55.207Z,90.58
2022-10-20T00:39:00.110Z,89.88
2022-10-20T00:40:03.681Z,89.78
2022-10-20T00:41:08.753Z,90.14
2022-10-20T00:42:12.894Z,89.79
2022-10-20T00:43:17.120Z,89.82
2022-10-20T00:44:30.810Z,89.47
2022-10-20T00:45:34.260Z,89.89
2022-10-20T00:46:39.553Z,90.44
2022-10-20T00:47:47.667Z,90.42
2022-10-20T00:48:55.025Z,90.09
2022-10-20T00:49:59.779Z,90.40
2022-10-20T00:51:03.286Z,90.16
2022-10-20T00:52:09.010Z,89.93
2022-10-20T00:53:11.643Z,89.90
2022-10-20T00:54:16.769Z,90.30
2022-10-20T00:55:20.786Z,90.45
2022-10-20T00:56:24.361Z,90.85
2022-10-20T00:57:28.634Z,91.34
2022-10-20T00:58:33.660Z,91.58
2022-10-20T00:59:37.066Z,91.32
2022-10-20T01:00:41.308Z,91.27
2022-10-20T01:01:46.344Z,91.50
2022-10-20T01:02:51.242Z,91.37
2022-10-20T01:03:54.735Z,91.04
2022-10-20T01:04:58.030Z,91.72
2022-10-20T01:06:01.337Z,91.99
2022-10-20T01:07:04.634Z,92.00
2022-10-20T01:08:08.207Z,91.73
2022-10-20T01:09:14.624Z,91.13
2022-10-20T01:10:19.674Z,91.64
2022-10-20T01:11:44.550Z,91.66
2022-10-20T01:12:49.828Z,92.22
2022-10-20T01:14:10.982Z,92.48
2022-10-20T01:15:22.124Z,92.29
2022-10-20T01:16:28.695Z,92.06
2022-10-20T01:17:41.670Z,92.03
2022-10-20T01:18:46.833Z,92.07
2022-10-20T01:20:00.747Z,92.36
2022-10-20T01:21:20.791Z,91.48
2022-10-20T01:22:30.771Z,91.41
2022-10-20T01:23:51.215Z,90.97
2022-10-20T01:25:13.201Z,91.28
2022-10-20T01:26:34.668Z,90.69
2022-10-20T01:27:40.329Z,91.16
2022-10-20T01:28:45.649Z,90.00
2022-10-20T01:29:53.541Z,90.29
2022-10-20T01:30:57.766Z,89.67
2022-10-20T01:32:03.104Z,89.70
2022-10-20T01:33:11.150Z,89.55
2022-10-20T01:34:35.658Z,89.52
2022-10-20T01:35:46.567Z,89.08
2022-10-20T01:36:56.692Z,89.06
2022-10-20T01:39:20.792Z,88.18
2022-10-20T01:40:26.085Z,87.61
2022-10-20T01:41:34.784Z,87.85
2022-10-20T01:42:41.902Z,88.19
2022-10-20T01:43:47.045Z,87.55
2022-10-20T01:44:51.071Z,86.65
2022-10-20T01:45:57.812Z,87.17
2022-10-20T01:47:02.154Z,87.39
2022-10-20T01:48:08.448Z,86.96
2022-10-20T01:49:13.332Z,86.37
2022-10-20T01:50:17.880Z,86.63
2022-10-20T01:51:22.316Z,87.96
2022-10-20T01:52:26.353Z,87.08
2022-10-20T01:53:36.650Z,88.05
2022-10-20T01:54:41.940Z,87.18
2022-10-20T01:55:45.443Z,87.02
2022-10-20T01:56:57.293Z,87.54
2022-10-20T01:58:20.652Z,86.62
2022-10-20T01:59:28.445Z,86.57
2022-10-20T02:00:31.842Z,86.71
2022-10-20T02:01:44.879Z,86.23
2022-10-20T02:03:07.472Z,86.21
2022-10-20T02:04:10.444Z,86.56
2022-10-20T02:05:32.435Z,87.80
2022-10-20T02:06:51.720Z,87.67
2022-10-20T02:07:57.834Z,88.17
2022-10-20T02:09:08.750Z,88.24
2022-10-20T02:10:16.750Z,87.82
2022-10-20T02:11:23.595Z,87.86
2022-10-20T02:12:29.615Z,87.96
2022-10-20T02:13:35.929Z,88.03
2022-10-20T02:14:39.990Z,87.70
2022-10-20T02:15:45.249Z,88.63
2022-10-20T02:16:49.394Z,88.65
2022-10-20T02:18:01.132Z,88.80
2022-10-20T02:19:06.315Z,88.24
2022-10-20T02:20:10.340Z,89.12
2022-10-20T02:21:13.318Z,88.85
2022-10-20T02:22:16.409Z,88.47
2022-10-20T02:23:21.222Z,88.02
2022-10-20T02:24:25.403Z,88.19
2022-10-20T02:25:31.416Z,87.67
2022-10-20T02:26:42.548Z,87.82
2022-10-20T02:27:48.033Z,87.55
2022-10-20T02:28:52.671Z,87.63
2022-10-20T02:29:59.745Z,88.10
2022-10-20T02:31:03.668Z,88.24
2022-10-20T02:32:09.992Z,88.07
2022-10-20T02:33:14.127Z,88.06
2022-10-20T02:34:20.856Z,88.60
2022-10-20T02:35:26.252Z,89.58
2022-10-20T02:36:40.204Z,88.32
2022-10-20T02:37:43.498Z,88.39
2022-10-20T02:38:47.411Z,88.06
2022-10-20T02:39:50.404Z,88.42
2022-10-20T02:40:53.803Z,88.76
2022-10-20T02:41:56.985Z,88.52
2022-10-20T02:43:00.504Z,89.24
2022-10-20T02:44:05.468Z,88.63
2022-10-20T02:45:11.872Z,88.64
2022-10-20T02:47:27.991Z,88.92
2022-10-20T02:48:30.665Z,88.71
2022-10-20T02:49:33.844Z,88.47
2022-10-20T02:50:39.135Z,88.09
2022-10-20T02:51:41.492Z,88.25
2022-10-20T02:52:44.893Z,88.82
2022-10-20T02:53:47.976Z,88.64
2022-10-20T02:54:51.484Z,88.63
2022-10-20T02:55:54.886Z,88.75
2022-10-20T02:56:57.215Z,88.55
2022-10-20T02:58:02.092Z,88.29
2022-10-20T02:59:05.389Z,88.25
2022-10-20T03:00:10.690Z,87.99
2022-10-20T03:01:16.789Z,88.31
2022-10-20T03:02:20.197Z,88.27
2022-10-20T03:03:24.119Z,87.64
2022-10-20T03:05:30.010Z,87.76
2022-10-20T03:06:35.042Z,87.79
2022-10-20T03:07:38.620Z,88.34
2022-10-20T03:08:42.597Z,88.33
2022-10-20T03:09:46.195Z,88.24
2022-10-20T03:10:49.478Z,88.53
2022-10-20T03:11:53.034Z,88.42
2022-10-20T03:12:56.362Z,88.55
2022-10-20T03:13:59.889Z,88.08
2022-10-20T03:15:03.347Z,87.29
2022-10-20T03:16:05.750Z,87.29
2022-10-20T03:17:10.479Z,87.75
2022-10-20T03:18:13.711Z,88.67
2022-10-20T03:19:18.985Z,88.68
2022-10-20T03:20:25.444Z,88.13
2022-10-20T03:21:34.376Z,87.92
2022-10-20T03:22:38.060Z,87.70
2022-10-20T03:23:44.525Z,87.33
2022-10-20T03:24:48.110Z,87.20
2022-10-20T03:25:51.511Z,87.18
2022-10-20T03:26:55.163Z,87.08
2022-10-20T03:27:58.381Z,86.66
2022-10-20T03:29:06.410Z,86.96
2022-10-20T03:30:10.546Z,87.36
2022-10-20T03:31:14.257Z,86.88
2022-10-20T03:32:17.961Z,86.71
2022-10-20T03:33:21.779Z,87.03
2022-10-20T03:34:26.328Z,86.81
2022-10-20T03:35:29.951Z,86.95
2022-10-20T03:36:33.246Z,86.51
2022-10-20T03:37:35.600Z,86.66
2022-10-20T03:38:41.906Z,87.01
2022-10-20T03:39:44.584Z,87.55
2022-10-20T03:40:47.998Z,87.26
2022-10-20T03:41:51.281Z,87.17
2022-10-20T03:42:56.363Z,87.67
2022-10-20T03:43:59.549Z,86.66
2022-10-20T03:45:05.697Z,86.84
2022-10-20T03:46:10.242Z,86.44
2022-10-20T03:47:14.902Z,87.07
2022-10-20T03:48:17.650Z,86.18
2022-10-20T03:49:21.050Z,85.91
2022-10-20T03:50:24.451Z,86.03
2022-10-20T03:51:27.956Z,86.17
2022-10-20T03:52:31.773Z,86.14
2022-10-20T03:53:35.174Z,85.43
2022-10-20T03:54:38.782Z,85.47
2022-10-20T03:55:42.002Z,85.73
2022-10-20T03:56:45.609Z,85.80
2022-10-20T03:57:49.010Z,85.61
2022-10-20T03:58:52.323Z,85.73
2022-10-20T03:59:56.754Z,85.17
2022-10-20T04:00:59.190Z,85.16
2022-10-20T04:02:03.465Z,84.80
2022-10-20T04:03:06.718Z,85.76
2022-10-20T04:04:10.644Z,85.23
2022-10-20T04:05:15.711Z,85.27
2022-10-20T04:06:19.017Z,85.62
2022-10-20T04:07:21.470Z,85.98
2022-10-20T04:08:25.877Z,85.81
2022-10-20T04:09:28.375Z,86.55
2022-10-20T04:10:31.775Z,87.02
2022-10-20T04:11:35.279Z,87.03
2022-10-20T04:12:39.447Z,87.94
2022-10-20T04:13:42.916Z,88.23
2022-10-20T04:14:46.532Z,88.36
2022-10-20T04:15:49.926Z,88.47
2022-10-20T04:16:52.480Z,88.58
2022-10-20T04:18:15.522Z,89.06
2022-10-20T04:19:18.922Z,89.90
2022-10-20T04:20:22.213Z,90.23
2022-10-20T04:21:26.762Z,90.25
2022-10-20T04:22:31.267Z,90.25
2022-10-20T04:23:34.933Z,91.00
2022-10-20T04:24:38.333Z,90.97
2022-10-20T04:25:45.310Z,91.33
2022-10-20T04:27:52.094Z,91.08
2022-10-20T04:28:56.603Z,91.14
2022-10-20T04:29:59.294Z,91.21
2022-10-20T04:31:02.485Z,91.63
2022-10-20T04:32:06.618Z,91.28
2022-10-20T04:33:10.238Z,92.04
2022-10-20T04:34:15.298Z,92.17
2022-10-20T04:35:18.593Z,91.28
2022-10-20T04:36:21.368Z,91.27
2022-10-20T04:37:24.873Z,91.73
2022-10-20T04:38:31.094Z,91.80
2022-10-20T04:39:35.196Z,91.80
2022-10-20T04:40:39.160Z,92.07
2022-10-20T04:41:42.977Z,92.77
2022-10-20T04:42:48.261Z,92.18
2022-10-20T04:43:55.512Z,92.26
2022-10-20T04:45:00.516Z,91.90
2022-10-20T04:46:08.121Z,91.84
2022-10-20T04:47:10.393Z,93.02
2022-10-20T04:48:14.595Z,92.79
2022-10-20T04:49:16.797Z,93.20
2022-10-20T04:50:20.313Z,93.89
2022-10-20T04:51:26.787Z,93.39
2022-10-20T04:52:30.769Z,93.72
2022-10-20T04:53:34.057Z,94.38
2022-10-20T04:54:37.884Z,94.27
2022-10-20T04:55:41.170Z,94.54
2022-10-20T04:56:43.432Z,94.28
2022-10-20T04:57:46.938Z,93.49
2022-10-20T04:58:52.833Z,93.44
2022-10-20T04:59:56.025Z,92.99
2022-10-20T05:01:02.782Z,92.93
2022-10-20T05:02:06.108Z,93.76
2022-10-20T05:04:17.053Z,93.25
2022-10-20T05:05:20.546Z,93.27
2022-10-20T05:06:25.631Z,93.17
2022-10-20T05:07:29.867Z,93.84
2022-10-20T05:08:33.327Z,94.22
2022-10-20T05:09:37.538Z,94.30
2022-10-20T05:10:40.834Z,94.34
2022-10-20T05:11:45.243Z,93.93
2022-10-20T05:12:48.424Z,93.96
2022-10-20T05:13:54.961Z,93.99
2022-10-20T05:14:58.359Z,94.04
2022-10-20T05:16:01.552Z,94.13
2022-10-20T05:17:07.893Z,94.40
2022-10-20T05:18:11.804Z,93.54
2022-10-20T05:19:14.478Z,93.64
2022-10-20T05:20:17.983Z,94.19
2022-10-20T05:21:23.043Z,93.60
2022-10-20T05:22:26.134Z,94.46
2022-10-20T05:23:29.439Z,93.89
2022-10-20T05:24:32.943Z,94.03
2022-10-20T05:25:39.173Z,93.90
2022-10-20T05:26:42.344Z,93.85
2022-10-20T05:27:45.727Z,93.47
2022-10-20T05:28:49.148Z,94.25
2022-10-20T05:29:52.316Z,94.34
2022-10-20T05:30:57.810Z,94.37
2022-10-20T05:32:01.378Z,93.64
2022-10-20T05:33:04.739Z,94.40
2022-10-20T05:34:08.458Z,94.46
2022-10-20T05:35:11.856Z,94.90
2022-10-20T05:36:19.356Z,94.56
2022-10-20T05:37:24.189Z,94.78
2022-10-20T05:38:26.858Z,94.01
2022-10-20T05:39:30.786Z,93.97
2022-10-20T05:40:34.593Z,94.32
2022-10-20T05:41:38.956Z,94.11
2022-10-20T05:42:42.346Z,94.11
2022-10-20T05:43:50.850Z,94.37
2022-10-20T05:44:55.668Z,95.04
2022-10-20T05:46:02.017Z,94.45
2022-10-20T05:47:06.706Z,93.89
2022-10-20T05:48:10.212Z,93.40
2022-10-20T05:49:16.946Z,94.61
2022-10-20T05:50:21.284Z,94.82
2022-10-20T05:51:25.771Z,94.75
2022-10-20T05:52:28.409Z,95.24
2022-10-20T05:53:32.644Z,94.98
2022-10-20T05:54:36.257Z,94.61
2022-10-20T05:55:40.278Z,94.43
2022-10-20T05:56:44.100Z,93.60
2022-10-20T05:57:50.146Z,94.25
2022-10-20T05:58:54.588Z,94.50
2022-10-20T05:59:57.987Z,94.58
2022-10-20T06:01:05.315Z,95.48
2022-10-20T06:02:11.745Z,95.39
2022-10-20T06:03:17.437Z,94.97
2022-10-20T06:04:23.771Z,94.02
2022-10-20T06:05:28.317Z,94.33
2022-10-20T06:06:32.220Z,94.62
2022-10-20T06:07:34.609Z,94.23
2022-10-20T06:08:37.249Z,94.62
2022-10-20T06:09:41.095Z,93.59
2022-10-20T06:10:44.391Z,93.80
2022-10-20T06:11:48.941Z,93.83
2022-10-20T06:12:55.361Z,94.14
2022-10-20T06:13:58.772Z,93.83
2022-10-20T06:15:02.067Z,94.34
2022-10-20T06:16:06.579Z,94.54
2022-10-20T06:17:09.171Z,94.82
2022-10-20T06:18:12.791Z,94.49
2022-10-20T06:19:16.703Z,95.09
2022-10-20T06:20:20.485Z,94.50
2022-10-20T06:21:25.396Z,94.92
2022-10-20T06:22:29.944Z,94.22
2022-10-20T06:23:33.553Z,94.05
2022-10-20T06:24:35.908Z,94.52
2022-10-20T06:25:39.519Z,93.90
2022-10-20T06:26:43.772Z,93.42
2022-10-20T06:27:47.364Z,93.95
2022-10-20T06:28:54.684Z,93.85
2022-10-20T06:30:01.155Z,93.67
2022-10-20T06:31:12.019Z,93.71
2022-10-20T06:32:16.427Z,94.21
2022-10-20T06:33:23.375Z,94.42
2022-10-20T06:34:29.175Z,95.08
2022-10-20T06:35:31.420Z,94.47
2022-10-20T06:36:35.876Z,94.97
2022-10-20T06:37:39.107Z,94.95
2022-10-20T06:38:41.843Z,94.07
2022-10-20T06:39:45.871Z,94.87
2022-10-20T06:40:50.243Z,94.10
2022-10-20T06:41:54.416Z,94.07
2022-10-20T06:42:57.846Z,94.02
2022-10-20T06:44:03.210Z,94.48
2022-10-20T06:45:14.380Z,94.34
2022-10-20T06:46:19.954Z,93.85
2022-10-20T06:47:23.137Z,94.57
2022-10-20T06:48:26.887Z,95.55
2022-10-20T06:49:30.355Z,95.80
2022-10-20T06:50:33.771Z,95.05
2022-10-20T06:51:40.749Z,95.99
2022-10-20T06:52:44.221Z,95.70
2022-10-20T06:53:47.621Z,94.61
2022-10-20T06:54:50.843Z,95.92
2022-10-20T06:55:58.798Z,96.19
2022-10-20T06:57:01.818Z,95.54
2022-10-20T06:58:04.148Z,95.92
2022-10-20T06:59:07.521Z,96.05
2022-10-20T07:00:12.676Z,96.25
2022-10-20T07:01:20.903Z,96.73
2022-10-20T07:02:24.217Z,97.54
2022-10-20T07:03:28.347Z,96.20
2022-10-20T07:04:33.116Z,95.91
2022-10-20T07:05:36.711Z,96.35
2022-10-20T07:06:40.527Z,95.82
2022-10-20T07:07:43.660Z,96.37
2022-10-20T07:10:02.480Z,96.93
2022-10-20T07:11:07.922Z,96.16
2022-10-20T07:12:11.113Z,95.78
2022-10-20T07:13:14.524Z,95.90
2022-10-20T07:14:19.568Z,95.58
2022-10-20T07:15:24.356Z,94.69
2022-10-20T07:16:29.116Z,95.47
2022-10-20T07:17:32.517Z,94.67
2022-10-20T07:18:35.425Z,94.55
2022-10-20T07:19:38.156Z,95.66
2022-10-20T07:20:41.450Z,95.54
2022-10-20T07:21:45.915Z,96.41
2022-10-20T07:22:48.887Z,96.16
2022-10-20T07:23:56.502Z,96.13
2022-10-20T07:25:01.748Z,95.63
2022-10-20T07:26:09.349Z,95.69
2022-10-20T07:27:12.507Z,95.73
2022-10-20T07:28:18.520Z,95.30
2022-10-20T07:29:22.289Z,97.14
2022-10-20T07:30:25.749Z,98.45
2022-10-20T07:31:30.704Z,97.76
2022-10-20T07:32:35.487Z,98.47
2022-10-20T07:33:38.903Z,97.85
2022-10-20T07:34:41.567Z,97.45
2022-10-20T07:35:44.857Z,96.50
2022-10-20T07:36:50.807Z,96.31
2022-10-20T07:37:55.084Z,97.09
2022-10-20T07:38:59.105Z,97.03
2022-10-20T07:40:02.307Z,96.55
2022-10-20T07:41:06.440Z,96.98
2022-10-20T07:42:09.668Z,98.11
2022-10-20T07:43:12.926Z,99.04
2022-10-20T07:44:15.910Z,98.79
2022-10-20T07:45:21.786Z,98.20
2022-10-20T07:46:28.158Z,98.37
2022-10-20T07:47:34.118Z,98.63
2022-10-20T07:48:36.926Z,98.17
2022-10-20T07:49:44.707Z,98.22
2022-10-20T07:50:45.691Z,98.17
2022-10-20T07:51:48.069Z,98.45
2022-10-20T07:52:54.602Z,98.58
2022-10-20T07:54:01.658Z,98.11
2022-10-20T07:55:17.664Z,98.15
2022-10-20T07:56:11.059Z,98.14
2022-10-20T07:57:16.131Z,97.91
2022-10-20T07:58:19.443Z,97.26
2022-10-20T07:59:27.782Z,97.26
2022-10-20T08:00:31.295Z,98.23
2022-10-20T08:01:35.649Z,98.89
2022-10-20T08:02:40.799Z,99.73
2022-10-20T08:03:43.232Z,99.75
2022-10-20T08:04:47.604Z,99.08
2022-10-20T08:05:50.135Z,98.22
2022-10-20T08:06:54.265Z,98.13
2022-10-20T08:07:58.625Z,98.68
2022-10-20T08:09:03.382Z,98.30
2022-10-20T08:10:08.374Z,99.04
2022-10-20T08:11:10.795Z,98.50
2022-10-20T08:12:13.045Z,98.36
2022-10-20T08:13:16.446Z,97.95
2022-10-20T08:14:20.160Z,98.74
2022-10-20T08:15:31.403Z,99.46
2022-10-20T08:17:59.188Z,97.18
2022-10-20T08:19:16.060Z,98.93
2022-10-20T08:21:38.338Z,98.06
2022-10-20T08:22:45.077Z,98.90
2022-10-20T08:23:50.127Z,98.81
2022-10-20T08:24:57.311Z,99.49
2022-10-20T08:26:00.897Z,99.23
2022-10-20T08:27:07.807Z,98.85
2022-10-20T08:28:11.068Z,98.98
2022-10-20T08:29:15.391Z,99.39
2022-10-20T08:30:24.853Z,100.00
2022-10-20T08:31:24.803Z,100.00
2022-10-20T08:32:28.099Z,100.00
2022-10-20T08:33:31.814Z,100.00
2022-10-20T08:34:34.380Z,99.68
2022-10-20T08:35:41.569Z,99.19
2022-10-20T08:36:52.668Z,99.65
2022-10-20T08:37:58.682Z,100.00
2022-10-20T08:39:05.245Z,100.00
2022-10-20T08:40:08.407Z,99.91
2022-10-20T08:41:24.871Z,100.00
2022-10-20T08:42:33.997Z,100.00
2022-10-20T08:43:39.801Z,100.00
2022-10-20T08:44:44.945Z,100.00
2022-10-20T08:45:48.167Z,98.84
2022-10-20T08:46:51.755Z,98.56
2022-10-20T08:47:59.576Z,99.31
2022-10-20T08:49:04.961Z,100.00
2022-10-20T08:50:12.547Z,99.99
2022-10-20T08:51:20.735Z,99.37
2022-10-20T08:52:25.293Z,99.07
2022-10-20T08:53:31.295Z,98.91
2022-10-20T08:54:35.008Z,99.78
2022-10-20T08:55:38.199Z,100.00
2022-10-20T08:56:42.578Z,100.00
2022-10-20T08:57:47.822Z,100.00
2022-10-20T08:58:52.828Z,100.00
2022-10-20T08:59:58.069Z,100.00
2022-10-20T09:01:01.052Z,100.00
2022-10-20T09:02:06.225Z,100.00
2022-10-20T09:03:17.462Z,100.00
2022-10-20T09:04:33.787Z,100.00
2022-10-20T09:05:39.213Z,100.00
2022-10-20T09:06:44.077Z,100.00
2022-10-20T09:07:49.666Z,100.00
2022-10-20T09:08:54.826Z,100.00
2022-10-20T09:10:05.744Z,100.00
2022-10-20T09:11:09.942Z,100.00
2022-10-20T09:12:15.159Z,99.15
2022-10-20T09:13:22.632Z,99.61
2022-10-20T09:14:27.132Z,98.83
2022-10-20T09:15:30.495Z,98.54
2022-10-20T09:16:42.010Z,99.03
2022-10-20T09:17:44.816Z,99.64
2022-10-20T09:18:49.982Z,99.62
2022-10-20T09:19:54.652Z,99.68
2022-10-20T09:21:05.608Z,99.97
2022-10-20T09:22:09.071Z,100.00
2022-10-20T09:23:39.304Z,100.00
2022-10-20T09:24:24.472Z,100.00
2022-10-20T09:25:28.039Z,99.69
2022-10-20T09:26:57.607Z,99.67
2022-10-20T09:27:47.698Z,99.58
2022-10-20T09:29:12.047Z,99.35
2022-10-20T09:30:02.539Z,100.00
2022-10-20T09:31:07.638Z,100.00
2022-10-20T09:33:32.168Z,99.75
2022-10-20T09:34:35.882Z,99.93
2022-10-20T09:35:40.206Z,100.00
2022-10-20T09:36:44.036Z,100.00
2022-10-20T09:37:49.321Z,100.00
2022-10-20T09:38:51.773Z,100.00
2022-10-20T09:39:57.690Z,99.92
2022-10-20T09:41:06.510Z,99.47
2022-10-20T09:42:15.135Z,99.63
2022-10-20T09:43:19.277Z,98.92
2022-10-20T09:44:23.189Z,98.42
2022-10-20T09:45:30.486Z,99.05
2022-10-20T09:46:42.430Z,99.59
2022-10-20T09:47:47.280Z,100.00
2022-10-20T09:48:52.562Z,100.00
2022-10-20T09:50:00.923Z,100.00
2022-10-20T09:51:06.546Z,99.96
2022-10-20T09:52:21.575Z,100.00
2022-10-20T09:53:35.837Z,99.75
2022-10-20T09:54:39.551Z,99.27
2022-10-20T09:55:43.672Z,99.39
2022-10-20T09:56:49.139Z,99.67
2022-10-20T09:57:54.130Z,100.00
2022-10-20T09:58:59.446Z,100.00
2022-10-20T10:00:13.507Z,100.00
2022-10-20T10:01:11.589Z,100.00
2022-10-20T10:02:16.933Z,98.92
2022-10-20T10:03:25.660Z,97.31
2022-10-20T10:04:36.164Z,97.89
2022-10-20T10:05:40.075Z,98.68
2022-10-20T10:06:46.203Z,98.31
2022-10-20T10:08:00.084Z,98.47
2022-10-20T10:09:07.073Z,98.20
2022-10-20T10:10:21.473Z,97.79
2022-10-20T10:11:25.910Z,98.33
2022-10-20T10:12:29.526Z,99.25
2022-10-20T10:13:36.209Z,98.79
2022-10-20T10:14:42.490Z,99.19
2022-10-20T10:15:46.206Z,99.29
2022-10-20T10:16:50.795Z,98.49
2022-10-20T10:17:53.829Z,97.44
2022-10-20T10:19:06.119Z,96.00
2022-10-20T10:20:14.324Z,96.02
2022-10-20T10:21:18.142Z,96.88
2022-10-20T10:22:21.754Z,95.45
2022-10-20T10:23:26.916Z,95.25
2022-10-20T10:24:35.239Z,96.30
2022-10-20T10:25:44.305Z,96.05
2022-10-20T10:26:49.039Z,96.08
2022-10-20T10:28:07.054Z,96.66
2022-10-20T10:29:12.123Z,96.61
2022-10-20T10:30:17.626Z,95.86
2022-10-20T10:31:26.237Z,95.64
2022-10-20T10:32:34.068Z,95.92
2022-10-20T10:33:37.571Z,95.04
2022-10-20T10:34:46.568Z,95.92
2022-10-20T10:35:50.082Z,95.47
2022-10-20T10:36:53.483Z,95.10
2022-10-20T10:37:58.135Z,95.44
2022-10-20T10:39:02.372Z,95.44
2022-10-20T10:40:13.965Z,95.34
2022-10-20T10:41:21.401Z,95.79
2022-10-20T10:42:31.679Z,94.78
2022-10-20T10:43:46.264Z,94.55
2022-10-20T10:45:08.791Z,94.28
2022-10-20T10:46:14.268Z,94.02
2022-10-20T10:47:26.444Z,94.07
2022-10-20T10:48:47.287Z,93.98
2022-10-20T10:49:52.521Z,93.46
2022-10-20T10:51:02.273Z,92.28
2022-10-20T10:52:17.878Z,91.87
2022-10-20T10:53:39.470Z,92.03
2022-10-20T10:54:59.185Z,91.46
2022-10-20T10:56:23.824Z,90.52
2022-10-20T10:57:45.710Z,90.35
2022-10-20T10:59:05.932Z,91.06
2022-10-20T11:00:11.113Z,92.69
2022-10-20T11:01:27.571Z,93.13
2022-10-20T11:02:49.980Z,93.17
2022-10-20T11:04:01.019Z,91.13
2022-10-20T11:05:22.270Z,90.29
2022-10-20T11:06:27.555Z,90.97
2022-10-20T11:07:36.715Z,91.42
2022-10-20T11:08:51.092Z,91.73
2022-10-20T11:09:56.445Z,92.92
2022-10-20T11:11:02.040Z,93.06
2022-10-20T11:12:24.065Z,95.60
2022-10-20T11:13:35.372Z,95.82
2022-10-20T11:14:48.799Z,96.62
2022-10-20T11:16:09.397Z,95.83
2022-10-20T11:17:31.100Z,96.38
2022-10-20T11:18:36.806Z,96.72
2022-10-20T11:19:53.367Z,98.37
2022-10-20T11:20:57.491Z,97.52
2022-10-20T11:22:10.574Z,97.77
2022-10-20T11:23:19.342Z,98.19
2022-10-20T11:24:42.613Z,98.18
2022-10-20T11:25:50.899Z,97.19
2022-10-20T11:26:55.021Z,99.51
2022-10-20T11:28:00.443Z,99.01
2022-10-20T11:29:05.279Z,98.26
2022-10-20T11:30:17.348Z,98.39
2022-10-20T11:31:31.184Z,98.96
2022-10-20T11:32:39.083Z,99.48
2022-10-20T11:33:45.818Z,100.00
2022-10-20T11:35:03.017Z,99.37
2022-10-20T11:36:08.103Z,100.00
2022-10-20T11:37:12.731Z,99.18
2022-10-20T11:38:24.393Z,99.32
2022-10-20T11:39:47.640Z,99.04
2022-10-20T11:40:53.964Z,99.12
2022-10-20T11:41:59.246Z,99.62
2022-10-20T11:43:19.565Z,99.38
2022-10-20T11:44:28.282Z,100.00
2022-10-20T11:45:47.039Z,100.00
2022-10-20T11:46:52.188Z,100.00
2022-10-20T11:48:00.122Z,99.89
2022-10-20T11:49:04.159Z,100.00
2022-10-20T11:50:08.786Z,100.00
2022-10-20T11:51:32.152Z,100.00
2022-10-20T11:52:45.981Z,100.00
2022-10-20T11:53:57.006Z,100.00
2022-10-20T11:55:04.906Z,100.00
2022-10-20T11:56:16.135Z,100.00
2022-10-20T11:57:38.236Z,100.00
2022-10-20T11:58:42.894Z,100.00
2022-10-20T11:59:57.575Z,100.00
2022-10-20T12:01:02.127Z,100.00
2022-10-20T12:02:23.480Z,100.00
2022-10-20T12:03:37.326Z,100.00
2022-10-20T12:04:41.989Z,100.00
2022-10-20T12:05:58.832Z,99.89
2022-10-20T12:07:21.198Z,100.00
2022-10-20T12:08:30.278Z,100.00
2022-10-20T12:09:34.728Z,100.00
2022-10-20T12:10:46.118Z,100.00
2022-10-20T12:11:51.275Z,100.00
2022-10-20T12:12:55.396Z,100.00
2022-10-20T12:14:00.791Z,100.00
2022-10-20T12:15:06.523Z,100.00
2022-10-20T12:16:12.422Z,100.00
2022-10-20T12:17:16.741Z,100.00
2022-10-20T12:18:26.720Z,100.00
2022-10-20T12:19:31.573Z,100.00
2022-10-20T12:20:36.027Z,100.00
2022-10-20T12:21:56.555Z,100.00
2022-10-20T12:22:59.946Z,100.00
2022-10-20T12:24:04.816Z,100.00
2022-10-20T12:25:10.205Z,100.00
2022-10-20T12:26:33.164Z,100.00
2022-10-20T12:27:37.886Z,100.00
2022-10-20T12:28:41.822Z,100.00
2022-10-20T12:29:46.985Z,100.00
2022-10-20T12:31:01.363Z,100.00
2022-10-20T12:32:28.502Z,100.00
2022-10-20T12:33:40.627Z,100.00
2022-10-20T12:34:46.033Z,100.00
2022-10-20T12:36:02.279Z,100.00
2022-10-20T12:37:07.460Z,100.00
2022-10-20T12:38:11.473Z,100.00
2022-10-20T12:39:15.795Z,100.00
2022-10-20T12:40:21.103Z,100.00
2022-10-20T12:41:31.085Z,100.00
2022-10-20T12:42:36.261Z,100.00
2022-10-20T12:43:46.765Z,100.00
2022-10-20T12:44:49.645Z,100.00
2022-10-20T12:45:56.325Z,100.00
2022-10-20T12:47:07.519Z,100.00
2022-10-20T12:48:13.743Z,100.00
2022-10-20T12:49:18.797Z,100.00
2022-10-20T12:50:24.847Z,100.00
2022-10-20T12:51:33.966Z,100.00
2022-10-20T12:52:39.025Z,100.00
2022-10-20T12:53:41.707Z,100.00
2022-10-20T12:54:48.685Z,100.00
2022-10-20T12:55:56.653Z,100.00
2022-10-20T12:57:02.758Z,100.00
2022-10-20T12:58:20.481Z,100.00
2022-10-20T12:59:25.035Z,100.00
2022-10-20T13:00:30.224Z,100.00
2022-10-20T13:01:35.904Z,100.00
2022-10-20T13:02:45.585Z,100.00
2022-10-20T13:03:50.122Z,100.00
2022-10-20T13:05:10.755Z,100.00
2022-10-20T13:06:25.124Z,100.00
2022-10-20T13:07:48.477Z,99.88
2022-10-20T13:09:06.854Z,100.00
2022-10-20T13:10:31.100Z,100.00
2022-10-20T13:11:36.278Z,100.00
2022-10-20T13:12:39.666Z,100.00
2022-10-20T13:13:52.584Z,100.00
2022-10-20T13:14:58.763Z,100.00
2022-10-20T13:16:06.276Z,100.00
2022-10-20T13:17:11.872Z,100.00
2022-10-20T13:18:31.187Z,100.00
2022-10-20T13:19:36.535Z,100.00
2022-10-20T13:21:00.497Z,100.00
2022-10-20T13:22:21.350Z,100.00
2022-10-20T13:23:32.170Z,100.00
2022-10-20T13:24:42.590Z,100.00
2022-10-20T13:25:53.176Z,100.00
2022-10-20T13:26:58.026Z,100.00
2022-10-20T13:28:05.720Z,100.00
2022-10-20T13:29:23.118Z,100.00
2022-10-20T13:30:26.515Z,100.00
2022-10-20T13:31:34.523Z,100.00
2022-10-20T13:32:53.916Z,100.00
2022-10-20T13:34:04.020Z,100.00
2022-10-20T13:35:05.178Z,100.00
2022-10-20T13:36:27.733Z,100.00
2022-10-20T13:37:35.795Z,100.00
2022-10-20T13:38:47.818Z,100.00
2022-10-20T13:39:53.259Z,100.00
2022-10-20T13:42:07.568Z,100.00
2022-10-20T13:43:14.938Z,100.00
2022-10-20T13:44:36.931Z,99.88
2022-10-20T13:45:45.031Z,100.00
2022-10-20T13:46:55.752Z,99.36
2022-10-20T13:48:19.355Z,98.86
2022-10-20T13:49:33.398Z,98.96
2022-10-20T13:50:39.777Z,99.16
2022-10-20T13:51:45.078Z,99.21
2022-10-20T13:52:49.844Z,98.53
2022-10-20T13:53:55.225Z,98.70
2022-10-20T13:54:58.194Z,99.23
2022-10-20T13:56:08.498Z,99.22
2022-10-20T13:57:22.615Z,99.56
2022-10-20T13:58:25.640Z,98.98
2022-10-20T13:59:31.797Z,98.70
2022-10-20T14:00:38.186Z,99.09
2022-10-20T14:01:43.245Z,98.47
2022-10-20T14:02:53.645Z,98.81
2022-10-20T14:03:57.369Z,98.64
2022-10-20T14:05:14.075Z,99.15
2022-10-20T14:06:27.110Z,99.04
2022-10-20T14:07:32.221Z,98.73
2022-10-20T14:08:37.807Z,98.58
2022-10-20T14:09:43.876Z,98.09
2022-10-20T14:10:47.956Z,98.73
2022-10-20T14:11:53.969Z,98.50
2022-10-20T14:12:59.191Z,98.93
2022-10-20T14:14:02.849Z,98.85
2022-10-20T14:15:07.304Z,98.72
2022-10-20T14:16:12.281Z,99.45
2022-10-20T14:17:19.947Z,99.30
2022-10-20T14:18:27.953Z,99.22
2022-10-20T14:19:33.684Z,99.72
2022-10-20T14:20:40.966Z,98.24
2022-10-20T14:21:46.197Z,98.18
2022-10-20T14:22:51.330Z,97.94
2022-10-20T14:23:56.578Z,97.83
2022-10-20T14:25:05.367Z,98.25